Yerseke, Netherlands
Current Conditions -  °F | °C
As of 12:55 PM on Sunday 25 Jan 2015 (Local Time) from EHWO Reporting Station
Haze Haze  
Wind Chill: 36°   Ceiling: 7700
Heat Index: 41°   Visibility: 6mi
Dew Point: 39°   Wind: 7mph
Humidity: 93%   Direction: 230°SW
Pressure: 30.39"   Gusts: NA
Location:  51.49°N, 4.05°E
Report Text: EHWO 251155Z AUTO 23006KT 9000 BR BKN077 OVC099 05/04 Q1029 BLU
Loading
Personal Weather Stations






























Interactive Weather Map New forecast layout! Learn more

10-Day Weather Forecast

Advertisements
Track Severe Weather on mobile